createdAt,value
2023-01-01T00:00:45.841Z,174.38
2023-01-01T00:03:12.846Z,168.15
2023-01-01T00:05:42.347Z,165.48
2023-01-01T00:08:09.198Z,173.15
2023-01-01T00:10:38.569Z,183.48
2023-01-01T00:13:05.450Z,176.60
2023-01-01T00:15:33.638Z,185.05
2023-01-01T00:18:00.755Z,182.48
2023-01-01T00:20:33.158Z,180.07
2023-01-01T00:23:02.540Z,185.00
2023-01-01T00:25:29.330Z,195.45
2023-01-01T00:27:56.264Z,196.70
2023-01-01T00:30:25.155Z,199.68
2023-01-01T00:32:55.492Z,203.05
2023-01-01T00:35:27.168Z,207.63
2023-01-01T00:37:56.235Z,211.20
2023-01-01T00:40:23.560Z,210.27
2023-01-01T00:42:50.601Z,219.23
2023-01-01T00:45:22.225Z,217.48
2023-01-01T00:47:51.656Z,211.10
2023-01-01T00:50:19.303Z,206.27
2023-01-01T00:52:46.185Z,210.82
2023-01-01T00:55:13.662Z,224.55
2023-01-01T00:57:40.607Z,224.75
2023-01-01T01:00:08.505Z,235.52
2023-01-01T01:02:35.817Z,240.68
2023-01-01T01:05:04.623Z,237.88
2023-01-01T01:07:37.381Z,247.68
2023-01-01T01:10:06.734Z,247.30
2023-01-01T01:12:35.078Z,238.70
2023-01-01T01:15:02.628Z,242.38
2023-01-01T01:17:29.993Z,233.68
2023-01-01T01:19:56.877Z,227.55
2023-01-01T01:22:28.230Z,213.05
2023-01-01T01:24:57.226Z,215.43
2023-01-01T01:27:24.718Z,218.20
2023-01-01T01:29:51.621Z,220.73
2023-01-01T01:32:18.692Z,223.55
2023-01-01T01:34:48.035Z,231.68
2023-01-01T01:37:14.999Z,232.30
2023-01-01T01:39:42.257Z,236.32
2023-01-01T01:42:18.845Z,232.70
2023-01-01T01:45:03.571Z,232.57
2023-01-01T01:47:50.972Z,228.40
2023-01-01T01:50:37.269Z,225.25
2023-01-01T01:53:08.122Z,215.65
2023-01-01T01:55:43.714Z,211.68
2023-01-01T01:58:13.344Z,219.40
2023-01-01T02:00:40.356Z,212.80
2023-01-01T02:03:12.499Z,210.82
2023-01-01T02:05:41.761Z,217.85
2023-01-01T02:08:12.897Z,216.98
2023-01-01T02:10:41.814Z,217.50
2023-01-01T02:13:08.964Z,215.88
2023-01-01T02:16:01.826Z,211.18
2023-01-01T02:19:01.745Z,206.40
2023-01-01T02:21:39.637Z,205.45
2023-01-01T02:24:19.208Z,204.02
2023-01-01T02:27:09.719Z,200.82
2023-01-01T02:29:50.365Z,193.35
2023-01-01T02:32:31.160Z,188.30
2023-01-01T02:35:25.722Z,177.02
2023-01-01T02:37:59.696Z,172.35
2023-01-01T02:40:30.082Z,167.40
2023-01-01T02:43:00.908Z,177.02
2023-01-01T02:45:29.887Z,170.50
2023-01-01T02:47:59.326Z,173.88
2023-01-01T02:50:29.233Z,175.88
2023-01-01T02:53:21.884Z,179.25
2023-01-01T02:56:22.975Z,179.70
2023-01-01T02:59:36.292Z,170.93
2023-01-01T03:02:43.871Z,167.38
2023-01-01T03:05:22.523Z,177.82
2023-01-01T03:08:10.643Z,175.25
2023-01-01T03:10:43.592Z,177.25
2023-01-01T03:13:13.203Z,176.70
2023-01-01T03:15:50.682Z,175.82
2023-01-01T03:18:23.476Z,175.18
2023-01-01T03:20:54.311Z,175.88
2023-01-01T03:23:28.139Z,173.55
2023-01-01T03:26:02.112Z,177.00
2023-01-01T03:28:35.633Z,174.93
2023-01-01T03:31:08.979Z,175.30
2023-01-01T03:33:43.582Z,175.82
2023-01-01T03:36:15.734Z,177.77
2023-01-01T03:38:49.370Z,181.38
2023-01-01T03:41:26.178Z,176.57
2023-01-01T03:44:11.566Z,182.40
2023-01-01T03:46:38.540Z,178.63
2023-01-01T03:49:11.687Z,177.38
2023-01-01T03:52:02.307Z,177.13
2023-01-01T03:55:09.160Z,180.50
2023-01-01T03:58:03.972Z,183.77
2023-01-01T04:00:41.025Z,172.82
2023-01-01T04:03:23.481Z,180.95
2023-01-01T04:05:50.823Z,174.90
2023-01-01T04:08:18.247Z,179.73
2023-01-01T04:11:00.492Z,179.57
2023-01-01T04:13:27.641Z,177.82
2023-01-01T04:15:54.523Z,177.75
2023-01-01T04:18:22.159Z,181.48
2023-01-01T04:20:49.097Z,179.55
2023-01-01T04:23:16.153Z,171.63
2023-01-01T04:25:43.293Z,182.68
2023-01-01T04:28:10.587Z,173.75
2023-01-01T04:33:03.851Z,174.60
2023-01-01T04:35:30.824Z,169.70
2023-01-01T04:38:00.721Z,161.95
2023-01-01T04:40:27.626Z,171.88
2023-01-01T04:42:54.678Z,172.02
2023-01-01T04:45:21.531Z,168.38
2023-01-01T04:47:48.565Z,165.52
2023-01-01T04:50:17.881Z,168.50
2023-01-01T04:52:54.062Z,156.63
2023-01-01T04:55:20.877Z,162.35
2023-01-01T04:57:47.640Z,162.75
2023-01-01T05:00:17.428Z,161.50
2023-01-01T05:02:44.639Z,157.27
2023-01-01T05:05:11.409Z,159.07
2023-01-01T05:07:41.008Z,158.48
2023-01-01T05:10:09.246Z,153.68
2023-01-01T05:12:36.019Z,150.60
2023-01-01T05:15:03.132Z,145.13
2023-01-01T05:17:32.183Z,148.50
2023-01-01T05:20:00.501Z,145.60
2023-01-01T05:22:27.549Z,150.15
2023-01-01T05:24:56.290Z,151.80
2023-01-01T05:27:25.146Z,151.07
2023-01-01T05:29:52.534Z,147.25
2023-01-01T05:32:22.611Z,153.07
2023-01-01T05:34:49.486Z,153.07
2023-01-01T05:37:17.969Z,147.93
2023-01-01T05:39:45.237Z,149.13
2023-01-01T05:42:12.386Z,148.10
2023-01-01T05:44:39.197Z,152.77
2023-01-01T05:47:06.169Z,152.45
2023-01-01T05:49:33.052Z,151.00
2023-01-01T05:51:59.785Z,148.65
2023-01-01T05:54:26.704Z,149.77
2023-01-01T05:56:53.597Z,152.50
2023-01-01T05:59:20.390Z,152.02
2023-01-01T06:01:48.576Z,149.48
2023-01-01T06:04:15.519Z,151.15
2023-01-01T06:06:44.812Z,145.93
2023-01-01T06:09:12.069Z,148.95
2023-01-01T06:11:41.485Z,153.23
2023-01-01T06:14:11.083Z,152.73
2023-01-01T06:16:37.984Z,150.35
2023-01-01T06:19:05.621Z,145.85
2023-01-01T06:21:32.543Z,149.07
2023-01-01T06:24:02.365Z,146.57
2023-01-01T06:26:32.736Z,144.25
2023-01-01T06:29:03.044Z,147.18
2023-01-01T06:31:36.823Z,173.82
2023-01-01T06:34:08.043Z,205.77
2023-01-01T06:36:35.156Z,146.20
2023-01-01T06:39:03.873Z,146.98
2023-01-01T06:41:33.737Z,250.55
2023-01-01T06:44:02.998Z,150.00
2023-01-01T06:46:32.251Z,147.40
2023-01-01T06:49:08.003Z,145.40
2023-01-01T06:51:41.488Z,147.27
2023-01-01T06:54:09.429Z,143.50
2023-01-01T06:56:36.800Z,151.52
2023-01-01T06:59:06.333Z,150.60
2023-01-01T07:01:39.895Z,141.05
2023-01-01T07:04:13.533Z,149.93
2023-01-01T07:06:40.890Z,147.60
2023-01-01T07:09:08.615Z,143.52
2023-01-01T07:11:38.733Z,140.80
2023-01-01T07:14:08.050Z,148.15
2023-01-01T07:16:38.009Z,143.13
2023-01-01T07:19:05.508Z,138.48
2023-01-01T07:21:43.467Z,144.48
2023-01-01T07:24:12.840Z,149.02
2023-01-01T07:26:41.153Z,147.65
2023-01-01T07:29:08.905Z,144.65
2023-01-01T07:31:38.896Z,141.82
2023-01-01T07:34:07.328Z,147.77
2023-01-01T07:36:38.475Z,147.32
2023-01-01T07:39:05.532Z,140.55
2023-01-01T07:41:32.366Z,138.32
2023-01-01T07:43:59.428Z,138.77
2023-01-01T07:46:27.030Z,143.43
2023-01-01T07:48:57.705Z,142.75
2023-01-01T07:51:27.868Z,138.15
2023-01-01T07:53:54.778Z,136.88
2023-01-01T07:56:21.600Z,142.30
2023-01-01T07:58:48.407Z,146.60
2023-01-01T08:01:19.611Z,138.40
2023-01-01T08:03:52.180Z,139.98
2023-01-01T08:06:22.362Z,143.73
2023-01-01T08:08:49.421Z,145.18
2023-01-01T08:11:17.382Z,139.82
2023-01-01T08:13:44.181Z,143.70
2023-01-01T08:16:11.109Z,139.13
2023-01-01T08:18:38.670Z,145.32
2023-01-01T08:21:06.240Z,139.90
2023-01-01T08:23:33.248Z,138.27
2023-01-01T08:26:02.253Z,136.20
2023-01-01T08:28:30.606Z,142.30
2023-01-01T08:30:58.231Z,139.45
2023-01-01T08:33:27.716Z,140.43
2023-01-01T08:35:55.033Z,138.90
2023-01-01T08:38:31.818Z,135.55
2023-01-01T08:41:16.320Z,144.52
2023-01-01T08:43:43.253Z,141.35
2023-01-01T08:46:10.226Z,140.40
2023-01-01T08:48:37.075Z,141.55
2023-01-01T08:51:04.434Z,133.75
2023-01-01T08:53:32.900Z,132.57
2023-01-01T08:56:06.611Z,139.10
2023-01-01T08:58:36.328Z,137.63
2023-01-01T09:01:03.936Z,138.48
2023-01-01T09:03:31.117Z,136.95
2023-01-01T09:05:58.386Z,137.10
2023-01-01T09:08:26.142Z,131.90
2023-01-01T09:11:02.067Z,138.18
2023-01-01T09:13:29.894Z,139.75
2023-01-01T09:15:57.544Z,137.23
2023-01-01T09:18:24.598Z,130.40
2023-01-01T09:20:51.535Z,139.10
2023-01-01T09:23:18.519Z,141.02
2023-01-01T09:25:45.400Z,137.48
2023-01-01T09:28:14.385Z,137.32
2023-01-01T09:30:41.583Z,135.85
2023-01-01T09:33:11.270Z,141.20
2023-01-01T09:35:38.793Z,131.88
2023-01-01T09:38:05.693Z,138.10
2023-01-01T09:41:01.845Z,136.60
2023-01-01T09:43:49.017Z,137.25
2023-01-01T09:46:16.581Z,138.15
2023-01-01T09:48:59.368Z,143.13
2023-01-01T09:51:31.978Z,135.35
2023-01-01T09:54:16.231Z,137.35
2023-01-01T09:56:45.841Z,165.05
2023-01-01T09:59:12.789Z,165.40
2023-01-01T10:01:57.680Z,139.60
2023-01-01T10:04:51.216Z,134.68
2023-01-01T10:07:39.417Z,140.10
2023-01-01T10:10:40.294Z,140.90
2023-01-01T10:13:28.821Z,142.90
2023-01-01T10:16:10.316Z,135.57
2023-01-01T10:18:42.405Z,133.43
2023-01-01T10:21:47.269Z,140.52
2023-01-01T10:24:26.384Z,132.93
2023-01-01T10:26:58.001Z,138.18
2023-01-01T10:29:46.963Z,132.98
2023-01-01T10:32:23.926Z,131.95
2023-01-01T10:34:52.613Z,142.25
2023-01-01T10:37:20.394Z,138.55
2023-01-01T10:39:49.176Z,140.98
2023-01-01T10:42:16.541Z,134.75
2023-01-01T10:44:44.140Z,137.85
2023-01-01T10:47:29.874Z,138.48
2023-01-01T10:50:02.804Z,138.82
2023-01-01T10:52:36.280Z,137.35
2023-01-01T10:55:07.017Z,134.40
2023-01-01T10:57:41.081Z,138.73
2023-01-01T11:00:28.646Z,137.77
2023-01-01T11:03:23.845Z,138.00
2023-01-01T11:06:20.486Z,132.02
2023-01-01T11:08:50.751Z,139.18
2023-01-01T11:11:29.552Z,140.32
2023-01-01T11:14:00.101Z,137.35
2023-01-01T11:16:31.344Z,133.15
2023-01-01T11:19:13.625Z,141.10
2023-01-01T11:21:47.841Z,136.85
2023-01-01T11:24:37.901Z,136.70
2023-01-01T11:27:23.793Z,136.73
2023-01-01T11:29:53.428Z,134.30
2023-01-01T11:32:36.057Z,138.52
2023-01-01T11:37:41.684Z,137.95
2023-01-01T11:40:18.957Z,136.57
2023-01-01T11:42:59.391Z,136.32
2023-01-01T11:45:37.434Z,130.23
2023-01-01T11:48:27.816Z,136.57
2023-01-01T11:50:56.915Z,136.93
2023-01-01T11:53:23.854Z,130.48
2023-01-01T11:56:06.334Z,136.23
2023-01-01T11:58:36.541Z,129.73
2023-01-01T12:01:32.433Z,134.38
2023-01-01T12:04:09.484Z,135.23
2023-01-01T12:06:57.144Z,135.57
2023-01-01T12:09:30.223Z,129.07
2023-01-01T12:12:09.884Z,131.63
2023-01-01T12:14:53.271Z,133.35
2023-01-01T12:17:23.305Z,140.38
2023-01-01T12:19:55.901Z,133.32
2023-01-01T12:22:23.895Z,133.10
2023-01-01T12:24:52.348Z,138.02
2023-01-01T12:27:33.763Z,129.75
2023-01-01T12:30:22.042Z,129.85
2023-01-01T12:33:08.114Z,132.88
2023-01-01T12:35:53.666Z,129.65
2023-01-01T12:38:52.673Z,137.23
2023-01-01T12:41:28.419Z,136.10
2023-01-01T12:44:19.534Z,135.95
2023-01-01T12:46:52.297Z,134.32
2023-01-01T12:49:19.108Z,135.38
2023-01-01T12:52:10.457Z,134.35
2023-01-01T12:54:40.481Z,132.83
2023-01-01T12:57:30.741Z,127.70
2023-01-01T13:00:02.026Z,132.73
2023-01-01T13:02:33.221Z,132.00
2023-01-01T13:05:25.920Z,134.68
2023-01-01T13:08:01.572Z,133.98
2023-01-01T13:10:34.563Z,137.25
2023-01-01T13:15:56.021Z,132.15
2023-01-01T13:18:35.623Z,132.48
2023-01-01T13:21:04.857Z,127.88
2023-01-01T13:23:32.047Z,132.15
2023-01-01T13:26:17.739Z,145.50
2023-01-01T13:29:01.230Z,137.32
2023-01-01T13:31:40.584Z,133.15
2023-01-01T13:34:40.307Z,131.48
2023-01-01T13:37:19.193Z,136.18
2023-01-01T13:40:27.275Z,134.00
2023-01-01T13:42:58.980Z,134.55
2023-01-01T13:46:11.194Z,136.82
2023-01-01T13:49:05.561Z,131.98
2023-01-01T13:52:05.789Z,134.95
2023-01-01T13:54:50.599Z,133.02
2023-01-01T13:57:36.502Z,137.45
2023-01-01T14:00:31.103Z,137.48
2023-01-01T14:03:03.090Z,130.57
2023-01-01T14:05:40.392Z,135.18
2023-01-01T14:08:32.258Z,135.25
2023-01-01T14:11:03.267Z,133.45
2023-01-01T14:13:38.972Z,136.13
2023-01-01T14:16:11.047Z,141.10
2023-01-01T14:18:50.867Z,132.13
2023-01-01T14:21:24.908Z,138.00
2023-01-01T14:23:55.702Z,135.23
2023-01-01T14:26:27.599Z,136.75
2023-01-01T14:28:57.468Z,135.07
2023-01-01T14:31:35.053Z,130.93
2023-01-01T14:34:22.455Z,135.55
2023-01-01T14:36:57.982Z,134.48
2023-01-01T14:39:28.605Z,134.63
2023-01-01T14:42:04.208Z,131.13
2023-01-01T14:44:44.605Z,136.63
2023-01-01T14:47:20.919Z,134.73
2023-01-01T14:49:54.863Z,135.73
2023-01-01T14:52:28.844Z,137.48
2023-01-01T14:55:00.453Z,133.30
2023-01-01T14:57:37.572Z,137.93
2023-01-01T15:00:24.517Z,132.93
2023-01-01T15:02:51.449Z,141.73
2023-01-01T15:05:37.537Z,139.75
2023-01-01T15:08:18.743Z,134.30
2023-01-01T15:10:45.823Z,136.45
2023-01-01T15:13:19.575Z,141.25
2023-01-01T15:15:52.566Z,137.93
2023-01-01T15:18:46.817Z,131.52
2023-01-01T15:21:41.327Z,140.60
2023-01-01T15:24:24.149Z,136.15
2023-01-01T15:26:55.557Z,138.88
2023-01-01T15:29:49.977Z,135.90
2023-01-01T15:32:28.680Z,138.73
2023-01-01T15:35:01.027Z,130.60
2023-01-01T15:37:50.256Z,131.50
2023-01-01T15:40:17.017Z,137.32
2023-01-01T15:42:48.866Z,138.23
2023-01-01T15:45:35.354Z,138.30
2023-01-01T15:48:05.166Z,137.13
2023-01-01T15:50:39.372Z,137.95
2023-01-01T15:53:20.324Z,141.60
2023-01-01T15:55:57.411Z,139.75
2023-01-01T15:58:35.926Z,136.77
2023-01-01T16:01:06.886Z,135.60
2023-01-01T16:03:36.266Z,135.93
2023-01-01T16:06:03.303Z,135.25
2023-01-01T16:08:30.258Z,132.57
2023-01-01T16:10:59.167Z,133.77
2023-01-01T16:13:29.331Z,134.23
2023-01-01T16:16:05.315Z,137.48
2023-01-01T16:18:37.863Z,138.05
2023-01-01T16:21:23.744Z,138.20
2023-01-01T16:24:25.141Z,138.82
2023-01-01T16:26:59.741Z,138.52
2023-01-01T16:29:29.252Z,135.75
2023-01-01T16:32:04.019Z,129.93
2023-01-01T16:34:49.992Z,134.55
2023-01-01T16:37:19.054Z,139.02
2023-01-01T16:39:46.153Z,137.70
2023-01-01T16:42:13.727Z,129.82
2023-01-01T16:44:44.016Z,164.38
2023-01-01T16:47:13.499Z,136.68
2023-01-01T16:49:40.363Z,130.10
2023-01-01T16:52:07.444Z,131.38
2023-01-01T16:54:36.093Z,135.07
2023-01-01T16:57:03.164Z,136.73
2023-01-01T16:59:30.613Z,135.45
2023-01-01T17:01:58.735Z,135.50
2023-01-01T17:04:26.940Z,135.25
2023-01-01T17:06:54.730Z,133.52
2023-01-01T17:09:22.332Z,138.85
2023-01-01T17:11:49.367Z,138.93
2023-01-01T17:14:16.210Z,137.95
2023-01-01T17:16:45.251Z,160.65
2023-01-01T17:19:14.981Z,169.48
2023-01-01T17:21:46.263Z,166.07
2023-01-01T17:24:13.772Z,172.52
2023-01-01T17:26:40.517Z,165.15
2023-01-01T17:29:07.585Z,172.32
2023-01-01T17:31:35.213Z,280.48
2023-01-01T17:34:04.019Z,394.17
2023-01-01T17:36:33.243Z,155.68
2023-01-01T17:39:00.913Z,159.07
2023-01-01T17:41:29.533Z,499.10
2023-01-01T17:43:56.772Z,154.23
2023-01-01T17:46:26.638Z,206.20
2023-01-01T17:48:54.133Z,153.02
2023-01-01T17:51:21.239Z,167.75
2023-01-01T17:53:48.763Z,173.25
2023-01-01T17:56:18.038Z,170.40
2023-01-01T17:58:46.702Z,165.35
2023-01-01T18:01:19.366Z,165.73
2023-01-01T18:04:03.782Z,166.18
2023-01-01T18:06:40.318Z,155.57
2023-01-01T18:09:14.127Z,167.45
2023-01-01T18:11:41.885Z,167.25
2023-01-01T18:14:09.131Z,167.85
2023-01-01T18:16:40.035Z,169.77
2023-01-01T18:19:08.236Z,169.68
2023-01-01T18:21:37.109Z,170.35
2023-01-01T18:24:13.144Z,155.05
2023-01-01T18:26:40.260Z,167.57
2023-01-01T18:29:09.719Z,164.55
2023-01-01T18:31:36.649Z,176.15
2023-01-01T18:34:04.321Z,158.63
2023-01-01T18:36:37.024Z,175.05
2023-01-01T18:39:14.938Z,174.57
2023-01-01T18:41:48.751Z,176.60
2023-01-01T18:44:21.184Z,179.85
2023-01-01T18:47:11.455Z,184.97
2023-01-01T18:49:38.393Z,178.10
2023-01-01T18:52:08.214Z,170.57
2023-01-01T18:54:37.583Z,171.85
2023-01-01T18:57:23.648Z,169.65
2023-01-01T18:59:59.892Z,172.60
2023-01-01T19:02:44.736Z,175.23
2023-01-01T19:05:14.107Z,176.90
2023-01-01T19:07:42.366Z,180.88
2023-01-01T19:10:12.545Z,176.25
2023-01-01T19:12:42.371Z,187.48
2023-01-01T19:15:20.062Z,184.05
2023-01-01T19:17:49.946Z,183.30
2023-01-01T19:20:22.887Z,182.68
2023-01-01T19:22:49.847Z,171.57
2023-01-01T19:25:36.751Z,170.43
2023-01-01T19:28:15.688Z,162.45
2023-01-01T19:30:43.723Z,172.80
2023-01-01T19:33:10.726Z,176.57
2023-01-01T19:35:42.725Z,181.52
2023-01-01T19:38:09.620Z,182.40
2023-01-01T19:40:39.075Z,169.82
2023-01-01T19:43:06.865Z,167.35
2023-01-01T19:45:34.367Z,166.20
2023-01-01T19:48:01.057Z,156.68
2023-01-01T19:50:30.494Z,152.10
2023-01-01T19:52:57.558Z,167.00
2023-01-01T19:55:24.474Z,165.98
2023-01-01T19:57:51.423Z,168.35
2023-01-01T20:00:19.118Z,171.95
2023-01-01T20:02:48.764Z,178.32
2023-01-01T20:05:15.972Z,171.57
2023-01-01T20:07:42.797Z,166.13
2023-01-01T20:10:10.515Z,178.10
2023-01-01T20:12:37.594Z,175.48
2023-01-01T20:15:05.028Z,169.43
2023-01-01T20:17:35.233Z,163.70
2023-01-01T20:20:02.840Z,161.65
2023-01-01T20:22:29.918Z,161.38
2023-01-01T20:24:57.613Z,158.52
2023-01-01T20:27:29.672Z,162.57
2023-01-01T20:29:59.226Z,162.50
2023-01-01T20:32:28.476Z,167.23
2023-01-01T20:34:55.535Z,167.65
2023-01-01T20:37:37.684Z,167.60
2023-01-01T20:40:06.594Z,176.98
2023-01-01T20:42:33.835Z,167.48
2023-01-01T20:45:01.127Z,174.40
2023-01-01T20:47:27.941Z,169.90
2023-01-01T20:49:56.913Z,171.13
2023-01-01T20:52:26.270Z,168.77
2023-01-01T20:54:55.321Z,166.43
2023-01-01T20:57:22.313Z,157.48
2023-01-01T20:59:51.092Z,178.45
2023-01-01T21:02:18.479Z,179.27
2023-01-01T21:04:45.321Z,171.88
2023-01-01T21:07:15.183Z,170.77
2023-01-01T21:09:42.641Z,166.55
2023-01-01T21:12:09.922Z,172.68
2023-01-01T21:14:39.356Z,171.68
2023-01-01T21:17:18.837Z,171.05
2023-01-01T21:19:49.207Z,176.13
2023-01-01T21:22:17.956Z,170.05
2023-01-01T21:24:48.421Z,169.45
2023-01-01T21:27:26.604Z,190.70
2023-01-01T21:29:56.136Z,172.50
2023-01-01T21:32:39.357Z,155.65
2023-01-01T21:35:26.081Z,168.27
2023-01-01T21:37:54.795Z,165.38
2023-01-01T21:40:52.174Z,162.70
2023-01-01T21:43:28.073Z,175.18
2023-01-01T21:46:18.326Z,154.82
2023-01-01T21:49:12.036Z,172.85
2023-01-01T21:51:56.431Z,190.25
2023-01-01T21:54:37.696Z,173.45
2023-01-01T21:57:17.046Z,177.80
2023-01-01T21:59:47.927Z,167.75
2023-01-01T22:02:23.125Z,175.10
2023-01-01T22:04:51.255Z,190.95
2023-01-01T22:10:26.018Z,200.25
2023-01-01T22:12:58.160Z,175.48
2023-01-01T22:15:32.527Z,185.63
2023-01-01T22:18:08.454Z,166.23
2023-01-01T22:20:38.859Z,176.50
2023-01-01T22:23:20.022Z,193.20
2023-01-01T22:25:49.482Z,181.98
2023-01-01T22:28:21.911Z,189.65
2023-01-01T22:30:55.303Z,186.75
2023-01-01T22:33:28.296Z,174.70
2023-01-01T22:35:56.579Z,174.05
2023-01-01T22:38:32.065Z,169.80
2023-01-01T22:40:59.549Z,167.13
2023-01-01T22:43:32.153Z,170.10
2023-01-01T22:46:04.452Z,162.77
2023-01-01T22:48:37.013Z,153.73
2023-01-01T22:51:27.083Z,161.97
2023-01-01T22:53:54.366Z,163.05
2023-01-01T22:56:23.704Z,162.07
2023-01-01T22:58:56.824Z,170.85
2023-01-01T23:01:24.300Z,162.73
2023-01-01T23:03:51.586Z,174.18
2023-01-01T23:06:21.466Z,180.60
2023-01-01T23:08:50.075Z,170.38
2023-01-01T23:11:17.254Z,170.27
2023-01-01T23:14:08.013Z,171.48
2023-01-01T23:16:35.359Z,168.95
2023-01-01T23:19:05.001Z,158.60
2023-01-01T23:21:33.752Z,156.05
2023-01-01T23:24:04.285Z,154.15
2023-01-01T23:26:32.260Z,154.80
2023-01-01T23:28:59.407Z,156.75
2023-01-01T23:31:28.246Z,158.95
2023-01-01T23:33:58.791Z,154.80
2023-01-01T23:36:29.101Z,155.80
2023-01-01T23:39:00.885Z,160.10
2023-01-01T23:41:30.477Z,155.60
2023-01-01T23:43:58.119Z,161.13
2023-01-01T23:46:25.156Z,156.52
2023-01-01T23:48:53.223Z,158.57
2023-01-01T23:51:20.253Z,171.13
2023-01-01T23:53:48.295Z,169.73
2023-01-01T23:56:15.119Z,171.95
2023-01-01T23:58:42.233Z,172.30
